Terminal Aerodrome Forecast
Issued by NWS

Home | Current Version | Previous Version | Text Only | Print | Product List | Glossary On
Versions: 1 2 3 4 5 6 7 8 9 10 11 12 13 14 15 16 17 18 19 20 21 22 23
000
FTUS45 KSLC 282320
TAFBCE
TAF
KBCE 282320Z 2900/2924 30008KT P6SM VCSH SCT080 BKN120
     FM290300 29006KT P6SM FEW120
     FM291800 06007KT P6SM SCT080 SCT120=

USA.gov is the U.S. government's official web portal to all federal, state and local government web resources and services.